アロフィ の空港の天気 - METARとTAF

ニウエ国際空港 ( NIUE / IUE ) - ニウエ アロフィ
飛行場実況気象(Metar)
観測時間09/29 20:00 NUT (09/30 07:00 UTC)
風向・風速北東 3m/s
視程-
天気現象
-
気温24℃
湿度94%
気圧1013hPa
METARNIUE 300700Z AUTO 05006KT 030V090 //// // ///////// 24/23 Q1013
過去の天気等 Google飛行場航空写真 Wunderground天気予報

過去48時間のMETAR

飛行場予報(TAF)
データがありません